Paraibano, Brazil
Current Conditions -  °F | °C
As of 6:00 PM on Friday 28 Nov 2014 (Local Time) from SBTE Reporting Station
Few Clouds Few Clouds  
Wind Chill: 95°   Ceiling: Unl
Heat Index: 96°   Visibility: 6mi
Dew Point: 63°   Wind: 7mph
Humidity: 34%   Direction: 200°SSW
Pressure: 29.74"   Gusts: NA
Location:  6.43°S, 43.98°W
Report Text: SBTE 282100Z 20006KT 9999 FEW030 35/17 Q1007
Loading
Personal Weather Stations






























Interactive Weather Map New forecast layout! Learn more

10-Day Weather Forecast

Advertisements
Track Severe Weather on mobile